Time;durP1;ratioP1;P1;durP2;ratioP2;P2;SDS_P1;SDS_P2;PMS_P1;PMS_P2;Temp;Humidity;BMP_temperature;BMP_pressure;BME280_temperature;BME280_humidity;BME280_pressure;Samples;Min_cycle;Max_cycle;Signal;HPM_P1;HPM_P2
2020/12/23 00:00:12;;;;;;;8.08;7.10;;;;;;;8.56;51.90;100450.80;1778140;78;21150;-69
2020/12/23 00:02:43;;;;;;;9.25;7.42;;;;;;;8.55;51.91;100453.91;1789812;78;21118;-69
2020/12/23 00:05:15;;;;;;;9.65;7.95;;;;;;;8.54;51.89;100445.64;1813898;78;21175;-67
2020/12/23 00:07:43;;;;;;;10.13;7.42;;;;;;;8.54;51.89;100469.97;1772528;80;21194;-68
2020/12/23 00:10:10;;;;;;;9.43;6.75;;;;;;;8.54;51.88;100460.20;1794128;78;21570;-69
2020/12/23 00:12:38;;;;;;;8.60;7.10;;;;;;;8.53;51.86;100476.22;1779623;79;22032;-68
2020/12/23 00:15:07;;;;;;;8.55;6.72;;;;;;;8.52;51.85;100458.64;1781457;78;21134;-68
2020/12/23 00:17:35;;;;;;;9.10;6.97;;;;;;;8.51;51.83;100450.37;1799562;78;21150;-69
2020/12/23 00:20:04;;;;;;;8.80;7.42;;;;;;;8.51;51.81;100453.02;1789381;78;21132;-68
2020/12/23 00:22:31;;;;;;;8.10;6.57;;;;;;;8.51;51.79;100449.88;1807322;78;21142;-68
2020/12/23 00:24:59;;;;;;;8.85;6.78;;;;;;;8.50;51.78;100449.53;1800952;78;21162;-68
2020/12/23 00:27:26;;;;;;;8.58;7.00;;;;;;;8.50;51.72;100430.14;1801151;78;21107;-69
2020/12/23 00:29:54;;;;;;;7.60;6.55;;;;;;;8.50;51.72;100424.84;1785688;80;21429;-69
2020/12/23 00:32:21;;;;;;;10.05;7.72;;;;;;;8.48;51.72;100455.46;1789187;78;21123;-69
2020/12/23 00:34:48;;;;;;;8.23;6.97;;;;;;;8.49;51.71;100441.72;1795462;78;21198;-70
2020/12/23 00:37:15;;;;;;;8.60;6.65;;;;;;;8.48;51.70;100413.09;1817338;78;21186;-69
2020/12/23 00:39:43;;;;;;;9.93;7.78;;;;;;;8.48;51.67;100416.20;1759207;78;21182;-69
2020/12/23 00:42:10;;;;;;;7.25;6.10;;;;;;;8.47;51.65;100399.48;1762871;78;21387;-70
2020/12/23 00:44:38;;;;;;;7.70;6.20;;;;;;;8.47;51.63;100394.19;1762411;78;21194;-69
2020/12/23 00:47:05;;;;;;;8.30;6.75;;;;;;;8.46;51.61;100405.28;1755629;78;21163;-68
2020/12/23 00:49:33;;;;;;;8.73;7.47;;;;;;;8.47;51.60;100407.43;1767805;78;21158;-69
2020/12/23 00:52:00;;;;;;;7.97;6.70;;;;;;;8.45;51.58;100402.27;1771025;78;21621;-68
2020/12/23 00:54:28;;;;;;;9.03;7.20;;;;;;;8.44;51.55;100386.05;1790270;80;21568;-68
2020/12/23 00:56:58;;;;;;;7.45;5.87;;;;;;;8.43;51.52;100385.69;1778788;78;21623;-68
2020/12/23 00:59:25;;;;;;;8.93;6.42;;;;;;;8.44;51.54;100401.08;1764035;78;21214;-67
2020/12/23 01:01:59;;;;;;;8.85;6.72;;;;;;;8.42;51.53;100406.53;1769139;78;21168;-69
2020/12/23 01:04:27;;;;;;;7.47;5.92;;;;;;;8.43;51.50;100391.47;1761014;80;21135;-69
2020/12/23 01:06:57;;;;;;;8.50;6.60;;;;;;;8.42;51.46;100377.88;1739061;81;21438;-69
2020/12/23 01:09:24;;;;;;;8.75;6.78;;;;;;;8.42;51.46;100385.81;1750014;80;21158;-68
2020/12/23 01:11:52;;;;;;;7.50;6.00;;;;;;;8.41;51.44;100370.42;1762756;80;21615;-68
2020/12/23 01:14:20;;;;;;;10.35;6.75;;;;;;;8.41;51.44;100356.33;1776793;80;21595;-67
2020/12/23 01:16:48;;;;;;;8.55;6.05;;;;;;;8.39;51.42;100361.75;1779652;79;21135;-68
2020/12/23 01:19:15;;;;;;;8.30;6.37;;;;;;;8.38;51.44;100362.75;1784510;79;21201;-67
2020/12/23 01:21:44;;;;;;;8.08;6.17;;;;;;;8.38;51.43;100359.23;1792016;79;21175;-67
2020/12/23 01:24:12;;;;;;;7.75;6.42;;;;;;;8.39;51.42;100359.61;1769793;79;21143;-68
2020/12/23 01:26:40;;;;;;;7.60;6.00;;;;;;;8.37;51.43;100347.82;1761820;80;21183;-68
2020/12/23 01:29:07;;;;;;;7.80;5.47;;;;;;;8.38;51.44;100344.67;1757968;80;21642;-70
2020/12/23 01:31:35;;;;;;;9.68;6.85;;;;;;;8.38;51.43;100357.45;1783511;78;21386;-68
2020/12/23 01:34:05;;;;;;;7.55;5.85;;;;;;;8.37;51.42;100333.75;1766593;78;21211;-69
2020/12/23 01:36:33;;;;;;;8.23;6.37;;;;;;;8.36;51.39;100327.60;1755456;78;21176;-69
2020/12/23 01:39:00;;;;;;;7.62;6.12;;;;;;;8.37;51.42;100327.97;1797816;78;21151;-68
2020/12/23 01:41:28;;;;;;;7.42;5.87;;;;;;;8.36;51.41;100320.98;1802583;78;21202;-69
2020/12/23 01:43:56;;;;;;;7.30;6.03;;;;;;;8.37;51.41;100331.94;1805819;78;21361;-68
2020/12/23 01:46:34;;;;;;;7.28;5.58;;;;;;;8.37;51.37;100314.73;1796528;79;21163;-67
2020/12/23 01:49:08;;;;;;;8.10;5.83;;;;;;;8.36;51.37;100311.72;1778353;79;21108;-68
2020/12/23 01:51:36;;;;;;;;;;;;;;;8.36;51.36;100316.19;1774137;79;21162;-70
2020/12/23 01:54:03;;;;;;;6.65;5.20;;;;;;;8.35;51.38;100305.27;1770920;79;20232;-69
2020/12/23 01:56:31;;;;;;;7.65;5.42;;;;;;;8.27;51.50;100298.84;1792276;79;21213;-68
2020/12/23 01:58:59;;;;;;;7.90;5.95;;;;;;;8.27;51.50;100297.52;1783801;79;21182;-69
2020/12/23 02:01:28;;;;;;;8.05;6.45;;;;;;;8.29;51.48;100293.42;1783930;79;21171;-69
2020/12/23 02:03:55;;;;;;;7.37;5.70;;;;;;;8.30;51.47;100289.78;1775653;79;21182;-68
2020/12/23 02:06:22;;;;;;;9.18;5.92;;;;;;;8.29;51.47;100286.80;1791008;78;21129;-68
2020/12/23 02:08:50;;;;;;;8.40;6.20;;;;;;;8.30;51.49;100284.98;1803583;78;21451;-69
2020/12/23 02:11:18;;;;;;;9.75;6.42;;;;;;;8.31;51.46;100277.41;1786265;79;21155;-69
2020/12/23 02:13:46;;;;;;;8.23;5.85;;;;;;;8.30;51.47;100268.60;1783045;79;21180;-70
2020/12/23 02:16:14;;;;;;;7.62;6.58;;;;;;;8.31;51.47;100274.27;1811822;78;21166;-68
2020/12/23 02:18:43;;;;;;;6.97;5.47;;;;;;;8.31;51.46;100272.11;1781025;79;21163;-68
2020/12/23 02:21:13;;;;;;;6.92;5.58;;;;;;;8.31;51.47;100265.49;1809318;78;21338;-69
2020/12/23 02:23:42;;;;;;;7.28;5.83;;;;;;;8.32;51.42;100267.97;1798496;78;21171;-68
2020/12/23 02:26:09;;;;;;;8.03;6.47;;;;;;;8.33;51.44;100254.27;1785026;79;21158;-69
2020/12/23 02:28:36;;;;;;;6.03;5.17;;;;;;;8.33;51.40;100264.86;1793673;79;21143;-70
2020/12/23 02:31:04;;;;;;;7.12;6.03;;;;;;;8.32;51.41;100253.41;1775634;80;21159;-67
2020/12/23 02:33:32;;;;;;;8.85;6.05;;;;;;;8.33;51.40;100268.83;1788660;78;21435;-69
2020/12/23 02:35:59;;;;;;;7.42;6.22;;;;;;;8.33;51.42;100250.30;1786339;80;21220;-69
2020/12/23 02:38:26;;;;;;;7.83;6.50;;;;;;;8.32;51.42;100241.50;1776320;79;21181;-69
2020/12/23 02:40:53;;;;;;;8.35;6.40;;;;;;;8.33;51.39;100242.36;1778926;79;21190;-70
2020/12/23 02:43:21;;;;;;;7.70;5.92;;;;;;;8.32;51.38;100245.47;1783550;79;21152;-68
2020/12/23 02:45:48;;;;;;;7.70;6.25;;;;;;;8.33;51.39;100248.98;1791029;79;21726;-69
2020/12/23 02:48:15;;;;;;;8.63;6.62;;;;;;;8.32;51.37;100242.83;1772394;79;21202;-69
2020/12/23 02:50:42;;;;;;;9.05;6.22;;;;;;;8.32;51.37;100245.47;1777455;79;21646;-69
2020/12/23 02:53:12;;;;;;;7.90;5.85;;;;;;;8.31;51.37;100233.23;1779393;79;21131;-68
2020/12/23 02:55:40;;;;;;;7.80;6.30;;;;;;;8.32;51.37;100231.41;1784284;79;21606;-68
2020/12/23 02:58:07;;;;;;;7.92;6.10;;;;;;;8.33;51.37;100243.69;1803489;78;21206;-68
2020/12/23 03:00:36;;;;;;;9.43;6.75;;;;;;;8.32;51.38;100238.85;1769074;78;21174;-68
2020/12/23 03:03:03;;;;;;;12.40;7.33;;;;;;;8.33;51.34;100237.06;1791790;79;21132;-68
2020/12/23 03:05:31;;;;;;;9.05;6.70;;;;;;;8.32;51.32;100224.79;1786623;80;21107;-69
2020/12/23 03:07:58;;;;;;;8.23;6.55;;;;;;;8.33;51.34;100218.53;1764152;79;21119;-68
2020/12/23 03:10:26;;;;;;;9.33;6.60;;;;;;;8.34;51.32;100217.54;1763697;80;22005;-68
2020/12/23 03:12:53;;;;;;;8.30;6.47;;;;;;;8.33;51.33;100220.69;1791837;78;21190;-68
2020/12/23 03:15:21;;;;;;;9.75;6.67;;;;;;;8.32;51.32;100221.64;1782711;78;21095;-68
2020/12/23 03:17:48;;;;;;;9.60;6.25;;;;;;;8.32;51.33;100207.09;1798211;78;21175;-69
2020/12/23 03:20:15;;;;;;;9.40;7.08;;;;;;;8.32;51.33;100207.09;1791412;79;21127;-69
2020/12/23 03:22:44;;;;;;;8.85;7.00;;;;;;;8.32;51.33;100216.35;1804374;78;21213;-68
2020/12/23 03:25:11;;;;;;;9.63;7.15;;;;;;;8.33;51.31;100200.00;1768741;80;21582;-68
2020/12/23 03:27:39;;;;;;;9.45;6.90;;;;;;;8.33;51.29;100202.65;1786048;78;21170;-68
2020/12/23 03:30:06;;;;;;;9.53;6.75;;;;;;;8.33;51.29;100196.03;1799322;78;21123;-68
2020/12/23 03:32:34;;;;;;;8.68;6.87;;;;;;;8.32;51.31;100188.55;1795666;79;21136;-68
2020/12/23 03:35:03;;;;;;;8.85;7.12;;;;;;;8.32;51.31;100198.32;1797507;79;21355;-68
2020/12/23 03:37:31;;;;;;;8.48;6.67;;;;;;;8.32;51.30;100196.99;1806840;78;21198;-69
2020/12/23 03:39:58;;;;;;;8.83;6.67;;;;;;;8.33;51.30;100202.65;1773791;80;21202;-68
2020/12/23 03:42:25;;;;;;;8.20;6.80;;;;;;;8.32;51.30;100191.20;1778532;79;21658;-68
2020/12/23 03:44:53;;;;;;;8.13;6.55;;;;;;;8.32;51.30;100189.87;1779986;79;21579;-69
2020/12/23 03:47:20;;;;;;;9.15;7.12;;;;;;;8.33;51.30;100195.53;1786514;79;21744;-69
2020/12/23 03:49:47;;;;;;;11.05;7.72;;;;;;;8.33;51.31;100206.13;1787011;79;21643;-69
2020/12/23 03:52:16;;;;;;;9.15;7.20;;;;;;;8.32;51.28;100196.50;1785723;79;21170;-69
2020/12/23 03:54:43;;;;;;;10.00;7.40;;;;;;;8.33;51.29;100201.33;1784090;79;21150;-69
2020/12/23 03:57:10;;;;;;;10.15;7.30;;;;;;;8.32;51.28;100189.87;1783144;79;21145;-69
2020/12/23 03:59:38;;;;;;;10.93;7.35;;;;;;;8.33;51.30;100190.73;1773475;79;21379;-69
2020/12/23 04:02:06;;;;;;;9.18;7.28;;;;;;;8.32;51.28;100188.55;1792315;79;21178;-70
2020/12/23 04:04:34;;;;;;;9.73;7.50;;;;;;;8.32;51.24;100187.23;1773970;79;21158;-69
2020/12/23 04:07:02;;;;;;;9.95;7.83;;;;;;;8.33;51.24;100181.47;1790401;79;21178;-69
2020/12/23 04:09:29;;;;;;;8.78;7.08;;;;;;;8.33;51.24;100190.23;1787099;79;21198;-69
2020/12/23 04:11:57;;;;;;;10.25;7.20;;;;;;;8.33;51.24;100183.63;1800594;79;21310;-69
2020/12/23 04:14:25;;;;;;;10.98;8.43;;;;;;;8.33;51.23;100175.68;1778633;79;22144;-69
2020/12/23 04:16:53;;;;;;;10.03;7.95;;;;;;;8.32;51.21;100171.34;1799280;79;21162;-69
2020/12/23 04:19:21;;;;;;;9.95;7.85;;;;;;;8.33;51.21;100165.09;1775678;79;21106;-69
2020/12/23 04:21:48;;;;;;;10.38;7.42;;;;;;;8.34;51.22;100161.95;1804414;78;21168;-69
2020/12/23 04:24:19;;;;;;;11.25;7.55;;;;;;;8.33;51.20;100157.15;1788397;78;23520;-70
2020/12/23 04:26:48;;;;;;;10.32;7.53;;;;;;;8.27;51.20;100152.44;1773814;78;21629;-70
2020/12/23 04:29:15;;;;;;;10.48;7.83;;;;;;;8.33;51.18;100155.83;1777867;80;21131;-70
2020/12/23 04:31:43;;;;;;;10.60;8.23;;;;;;;8.33;51.20;100166.41;1780029;80;21190;-69
2020/12/23 04:34:11;;;;;;;11.53;8.78;;;;;;;8.34;51.17;100160.13;1797134;78;21101;-69
2020/12/23 04:36:39;;;;;;;10.48;7.58;;;;;;;8.33;51.18;100158.47;1803937;78;21418;-70
2020/12/23 04:39:07;;;;;;;9.25;7.30;;;;;;;8.33;51.15;100165.09;1807459;78;21190;-69
2020/12/23 04:41:35;;;;;;;9.73;7.08;;;;;;;8.34;51.15;100169.39;1797637;79;21206;-68
2020/12/23 04:44:04;;;;;;;10.25;7.70;;;;;;;8.33;51.17;100165.09;1797792;79;21101;-67
2020/12/23 04:46:36;;;;;;;10.88;7.58;;;;;;;8.33;51.16;100157.65;1801820;78;21184;-68
2020/12/23 04:49:04;;;;;;;10.63;7.80;;;;;;;8.33;51.13;100155.00;1777502;78;22244;-68
2020/12/23 04:51:36;;;;;;;9.93;7.53;;;;;;;8.33;51.11;100157.65;1788019;79;21145;-68
2020/12/23 04:54:07;;;;;;;10.78;8.03;;;;;;;8.32;51.10;100156.79;1799582;78;21131;-69
2020/12/23 04:56:35;;;;;;;10.00;7.83;;;;;;;8.32;51.15;100158.11;1820222;78;21150;-69
2020/12/23 04:59:03;;;;;;;10.85;7.08;;;;;;;8.32;51.17;100158.11;1797631;79;21178;-69
2020/12/23 05:01:31;;;;;;;10.32;7.45;;;;;;;8.32;51.14;100153.31;1794902;78;21202;-69
2020/12/23 05:04:01;;;;;;;9.85;7.25;;;;;;;8.32;51.15;100157.28;1763947;80;21204;-70
2020/12/23 05:06:28;;;;;;;9.90;7.55;;;;;;;8.32;51.15;100156.79;1763332;80;21115;-70
2020/12/23 05:08:56;;;;;;;10.18;7.72;;;;;;;8.31;51.15;100147.69;1776521;79;21174;-71
2020/12/23 05:11:24;;;;;;;11.50;7.72;;;;;;;8.32;51.15;100159.94;1783663;78;21171;-70
2020/12/23 05:13:51;;;;;;;11.80;8.25;;;;;;;8.31;51.16;100149.02;1802008;78;22056;-69
2020/12/23 05:16:23;;;;;;;8.73;7.05;;;;;;;8.31;51.15;100151.17;1759866;78;21979;-71
2020/12/23 05:18:56;;;;;;;9.75;7.20;;;;;;;8.32;51.14;100159.94;1792293;79;21128;-69
2020/12/23 05:21:24;;;;;;;10.50;7.65;;;;;;;8.31;51.09;100144.55;1775609;80;21200;-69
2020/12/23 05:23:51;;;;;;;9.90;7.25;;;;;;;8.30;51.11;100145.52;1796661;79;21226;-69
2020/12/23 05:26:19;;;;;;;11.48;7.67;;;;;;;8.31;51.10;100152.48;1806457;78;21376;-68
2020/12/23 05:28:46;;;;;;;10.38;7.37;;;;;;;8.31;51.11;100161.75;1748122;78;21163;-70
2020/12/23 05:31:14;;;;;;;10.03;7.05;;;;;;;8.30;51.09;100134.09;1814219;78;21206;-70
2020/12/23 05:33:45;;;;;;;10.58;7.42;;;;;;;8.31;51.07;100143.72;1802610;78;21187;-70
2020/12/23 05:36:19;;;;;;;11.90;8.28;;;;;;;8.31;51.07;100151.17;1804778;78;21084;-70
2020/12/23 05:38:46;;;;;;;9.58;7.70;;;;;;;8.31;51.07;100137.11;1801819;78;21451;-71
2020/12/23 05:41:14;;;;;;;10.70;7.75;;;;;;;8.31;51.09;100135.78;1820610;78;21147;-71
2020/12/23 05:43:44;;;;;;;10.75;7.67;;;;;;;8.31;51.09;100135.78;1817675;78;21158;-70
2020/12/23 05:46:12;;;;;;;10.72;7.45;;;;;;;8.32;51.06;100142.73;1821272;78;21174;-68
2020/12/23 05:48:40;;;;;;;11.95;8.38;;;;;;;8.31;51.05;100133.13;1793522;78;21150;-69
2020/12/23 05:51:09;;;;;;;9.95;7.78;;;;;;;8.32;51.01;100125.52;1781809;80;21369;-68
2020/12/23 05:53:38;;;;;;;10.35;7.20;;;;;;;8.32;51.00;100150.67;1772324;80;21421;-68
2020/12/23 05:56:08;;;;;;;9.85;8.10;;;;;;;8.32;50.97;100138.76;1777059;80;21178;-69
2020/12/23 05:58:37;;;;;;;12.23;8.20;;;;;;;8.32;51.00;100116.26;1793937;78;21142;-68
2020/12/23 06:01:08;;;;;;;11.40;9.03;;;;;;;8.32;50.99;100113.11;1766551;80;21147;-68
2020/12/23 06:03:55;;;;;;;11.55;8.75;;;;;;;8.31;51.00;100124.70;1820191;78;21378;-68
2020/12/23 06:06:28;;;;;;;11.40;8.65;;;;;;;8.31;51.00;100114.61;1795822;78;21173;-68
2020/12/23 06:08:58;;;;;;;10.05;7.95;;;;;;;8.30;51.00;100130.95;1762372;80;21647;-68
2020/12/23 06:11:34;;;;;;;11.53;8.55;;;;;;;8.28;50.99;100113.88;1813155;78;21729;-68
2020/12/23 06:14:12;;;;;;;11.55;8.63;;;;;;;8.29;51.03;100125.33;1768858;80;21171;-69
2020/12/23 06:16:48;;;;;;;10.80;8.53;;;;;;;8.29;51.02;100122.69;1803552;78;21375;-68
2020/12/23 06:19:36;;;;;;;10.85;7.65;;;;;;;8.29;51.01;100127.98;1819489;78;21202;-70
2020/12/23 06:22:01;;;;;;;11.30;8.35;;;;;;;8.28;50.99;100115.70;1799335;78;21139;-69
2020/12/23 06:24:28;;;;;;;11.18;8.78;;;;;;;8.27;51.00;100112.23;1778400;79;21142;-68
2020/12/23 06:26:57;;;;;;;11.70;8.78;;;;;;;8.27;50.99;100118.84;1802745;79;21823;-69
2020/12/23 06:29:29;;;;;;;11.08;8.18;;;;;;;8.26;50.97;100113.69;1791709;79;21372;-68
2020/12/23 06:32:02;;;;;;;11.63;8.20;;;;;;;8.27;50.96;100096.84;1816323;78;21178;-69
2020/12/23 06:34:32;;;;;;;13.62;8.78;;;;;;;8.27;50.97;100081.80;1791378;79;21195;-66
2020/12/23 06:37:19;;;;;;;11.73;8.63;;;;;;;8.27;50.96;100099.00;1778405;78;21186;-69
2020/12/23 06:39:53;;;;;;;13.43;9.38;;;;;;;8.30;50.97;100070.07;1804211;78;27852;-69
2020/12/23 06:42:24;;;;;;;12.40;8.90;;;;;;;8.26;50.98;100092.52;1769405;80;21570;-69
2020/12/23 06:44:58;;;;;;;12.95;9.10;;;;;;;8.26;50.98;100105.25;1806408;78;21371;-70
2020/12/23 06:47:28;;;;;;;12.73;8.28;;;;;;;8.26;50.98;100072.17;1759475;80;21656;-69
2020/12/23 06:50:03;;;;;;;10.95;8.00;;;;;;;8.27;50.99;100088.41;1782822;79;21221;-69
2020/12/23 06:55:44;;;;;;;12.95;8.55;;;;;;;8.28;50.94;100079.47;1788337;78;27645;-70
2020/12/23 06:58:36;;;;;;;16.07;10.28;;;;;;;8.23;51.00;100092.33;1775044;80;21131;-70
2020/12/23 07:01:19;;;;;;;14.85;9.65;;;;;;;8.24;51.01;100083.89;1758087;80;21589;-67
2020/12/23 07:03:47;;;;;;;14.55;10.08;;;;;;;8.22;51.02;100109.17;1782078;79;21149;-71
2020/12/23 07:06:32;;;;;;;12.68;8.93;;;;;;;8.23;51.02;100107.38;1772496;79;21470;-70
2020/12/23 07:09:01;;;;;;;14.13;10.10;;;;;;;8.22;51.03;100107.02;1787742;79;21168;-69
2020/12/23 07:11:30;;;;;;;14.10;10.00;;;;;;;8.22;51.01;100097.27;1780183;79;21139;-70
2020/12/23 07:13:58;;;;;;;12.65;9.78;;;;;;;8.23;51.00;100104.73;1758819;80;21360;-69
2020/12/23 07:16:25;;;;;;;14.10;9.98;;;;;;;8.23;51.01;100128.56;1799161;79;21351;-68
2020/12/23 07:18:53;;;;;;;14.53;10.43;;;;;;;8.24;51.04;100114.33;1769073;80;21161;-69
2020/12/23 07:21:26;;;;;;;15.20;10.88;;;;;;;8.25;51.00;100117.34;1768610;80;21139;-70
2020/12/23 07:23:56;;;;;;;15.67;10.60;;;;;;;8.26;50.98;100099.14;1783708;79;21162;-69
2020/12/23 07:26:24;;;;;;;14.20;10.00;;;;;;;8.26;50.93;100075.31;1735360;80;21381;-70
2020/12/23 07:28:52;;;;;;;15.93;10.98;;;;;;;8.27;50.99;100098.17;1766457;80;21175;-69
2020/12/23 07:31:19;;;;;;;14.33;10.08;;;;;;;8.27;51.15;100084.44;1805603;79;21650;-69
2020/12/23 07:33:47;;;;;;;14.53;10.58;;;;;;;8.29;51.16;100109.45;1769134;80;21187;-68
2020/12/23 07:36:15;;;;;;;15.60;10.20;;;;;;;8.30;51.15;100111.59;1796774;79;21238;-69
2020/12/23 07:38:42;;;;;;;15.28;10.38;;;;;;;8.31;51.13;100097.40;1773220;79;21202;-68
2020/12/23 07:41:12;;;;;;;12.82;9.55;;;;;;;8.32;51.09;100093.26;1782742;79;21164;-67
2020/12/23 07:43:40;;;;;;;16.35;11.38;;;;;;;8.33;51.08;100087.00;1782136;79;21099;-68
2020/12/23 07:46:09;;;;;;;15.78;10.18;;;;;;;8.34;51.33;100103.21;1774475;79;21166;-68
2020/12/23 07:48:37;;;;;;;15.08;10.78;;;;;;;8.35;51.88;100082.39;1763245;79;21146;-73
2020/12/23 07:51:04;;;;;;;16.25;10.75;;;;;;;8.39;53.94;100093.53;1788487;79;22982;-71
2020/12/23 07:53:31;;;;;;;16.93;11.18;;;;;;;8.41;54.84;100092.89;1709607;81;21182;-70
2020/12/23 07:56:05;;;;;;;16.95;11.25;;;;;;;8.44;54.97;100072.76;1776535;80;21643;-69
2020/12/23 07:58:34;;;;;;;15.23;9.90;;;;;;;8.45;54.91;100071.30;1762146;80;21818;-71
2020/12/23 08:01:02;;;;;;;16.15;11.10;;;;;;;8.47;54.76;100064.53;1759247;80;21179;-71
2020/12/23 08:03:31;;;;;;;18.27;12.37;;;;;;;8.49;54.58;100059.09;1759984;81;21610;-71
2020/12/23 08:06:05;;;;;;;16.48;10.90;;;;;;;8.49;54.38;100068.37;1747731;81;21191;-71
2020/12/23 08:08:34;;;;;;;16.60;11.68;;;;;;;8.51;54.15;100066.41;1746251;81;21349;-71
2020/12/23 08:11:14;;;;;;;16.50;11.25;;;;;;;8.52;53.95;100062.76;1756821;81;21219;-71
2020/12/23 08:13:42;;;;;;;16.95;11.35;;;;;;;8.51;53.75;100061.94;1742971;81;21404;-71
2020/12/23 08:16:15;;;;;;;16.80;11.48;;;;;;;8.52;53.59;100048.19;1724502;81;23685;-71
2020/12/23 08:18:43;;;;;;;18.63;12.53;;;;;;;8.52;53.43;100057.46;1765151;80;21200;-69
2020/12/23 08:21:19;;;;;;;16.57;11.60;;;;;;;8.52;53.28;100064.94;1770129;80;21575;-71
2020/12/23 08:23:47;;;;;;;15.78;10.30;;;;;;;8.53;53.15;100067.09;1775782;80;21112;-71
2020/12/23 08:26:14;;;;;;;16.62;11.65;;;;;;;8.52;53.02;100054.34;1769766;80;21202;-72
2020/12/23 08:28:43;;;;;;;18.10;12.03;;;;;;;8.52;52.88;100049.52;1749269;81;21626;-70
2020/12/23 08:31:25;;;;;;;17.73;11.50;;;;;;;8.52;52.80;100051.70;1773617;80;21196;-76
2020/12/23 08:33:53;;;;;;;17.52;11.20;;;;;;;8.53;52.69;100051.20;1702944;82;21600;-70
2020/12/23 08:36:21;;;;;;;16.35;10.82;;;;;;;8.52;52.59;100038.92;1735777;80;21119;-70
2020/12/23 08:38:49;;;;;;;16.50;11.05;;;;;;;8.51;52.53;100044.72;1767977;80;21183;-70
2020/12/23 08:41:21;;;;;;;15.30;10.93;;;;;;;8.52;52.44;100041.58;1755634;81;21378;-70
2020/12/23 08:43:50;;;;;;;16.50;11.63;;;;;;;8.51;52.38;100039.42;1774856;80;21151;-70
2020/12/23 08:46:23;;;;;;;15.60;10.38;;;;;;;8.53;52.35;100039.28;1771384;80;21571;-73
2020/12/23 08:48:51;;;;;;;17.87;12.30;;;;;;;8.52;52.25;100042.90;1734572;81;21143;-72
2020/12/23 08:51:21;;;;;;;14.68;11.08;;;;;;;8.52;52.19;100036.28;1769819;80;21140;-71
2020/12/23 08:53:52;;;;;;;16.85;11.18;;;;;;;8.52;52.10;100036.28;1766997;79;21372;-70
2020/12/23 08:56:30;;;;;;;19.30;11.93;;;;;;;8.53;52.05;100032.66;1803879;79;21210;-72
2020/12/23 08:59:09;;;;;;;15.68;10.80;;;;;;;8.52;52.04;100029.19;1798219;77;21199;-70
2020/12/23 09:01:36;;;;;;;16.02;11.53;;;;;;;8.53;51.99;100028.69;1799539;79;21123;-74
2020/12/23 09:04:09;;;;;;;16.45;11.30;;;;;;;8.51;51.98;100022.22;1793972;79;21127;-72
2020/12/23 09:06:42;;;;;;;16.25;11.35;;;;;;;8.52;51.92;100020.39;1796699;79;22336;-75
2020/12/23 09:09:23;;;;;;;16.45;11.97;;;;;;;8.53;51.88;100008.83;1786350;79;21188;-74
2020/12/23 09:11:54;;;;;;;14.43;10.82;;;;;;;8.53;51.84;100011.48;1800633;79;21141;-73
2020/12/23 09:14:37;;;;;;;16.37;11.88;;;;;;;8.53;51.83;100005.69;1758586;80;21172;-76
2020/12/23 09:17:08;;;;;;;17.48;11.08;;;;;;;8.54;51.77;100006.55;1770859;79;21123;-74
2020/12/23 09:20:03;;;;;;;17.10;11.08;;;;;;;8.47;51.76;99993.05;1753924;79;21650;-74
2020/12/23 09:25:28;;;;;;;16.90;11.75;;;;;;;8.56;51.73;99994.81;1754061;78;27439;-75
2020/12/23 09:27:58;;;;;;;17.45;11.40;;;;;;;8.54;51.70;99997.27;1726546;82;21195;-76
2020/12/23 09:30:36;;;;;;;16.82;10.80;;;;;;;8.54;51.71;99986.19;1741162;81;21386;-74
2020/12/23 09:33:09;;;;;;;16.70;11.48;;;;;;;8.56;51.67;99993.98;1734641;81;21165;-70
2020/12/23 09:35:37;;;;;;;15.67;11.07;;;;;;;8.55;51.65;99982.53;1747910;80;21623;-73
2020/12/23 09:38:24;;;;;;;16.62;10.68;;;;;;;8.57;51.64;99975.77;1742324;82;21182;-75
2020/12/23 09:40:55;;;;;;;16.67;11.28;;;;;;;8.56;51.61;99973.62;1752666;79;21186;-73
2020/12/23 09:43:26;;;;;;;16.02;11.25;;;;;;;8.57;51.59;99962.53;1741767;81;21391;-75
2020/12/23 09:45:58;;;;;;;14.25;10.05;;;;;;;8.57;51.58;99971.80;1748841;81;21198;-74
2020/12/23 09:48:27;;;;;;;16.12;10.98;;;;;;;8.58;51.56;99965.54;1756386;81;21142;-74
2020/12/23 09:50:55;;;;;;;14.80;10.53;;;;;;;8.59;51.54;99957.92;1744064;81;21187;-75
2020/12/23 09:53:24;;;;;;;15.05;10.85;;;;;;;8.61;51.50;99958.59;1754718;81;21113;-71
2020/12/23 09:55:53;;;;;;;15.63;11.10;;;;;;;8.61;51.49;99952.80;1741288;81;21177;-73
2020/12/23 09:58:20;;;;;;;16.67;11.03;;;;;;;8.62;51.47;99956.30;1752123;81;21167;-70
2020/12/23 10:00:49;;;;;;;15.50;11.35;;;;;;;8.63;51.44;99944.24;1751553;81;21178;-70
2020/12/23 10:03:16;;;;;;;15.38;10.53;;;;;;;8.64;51.38;99939.27;1736295;81;21241;-72
2020/12/23 10:05:44;;;;;;;15.13;10.88;;;;;;;8.65;51.38;99942.74;1733154;81;21184;-72
2020/12/23 10:08:11;;;;;;;15.68;11.12;;;;;;;8.66;51.36;99932.51;1722137;81;21454;-72
2020/12/23 10:10:39;;;;;;;16.97;12.10;;;;;;;8.67;51.33;99936.80;1741436;82;21220;-70
2020/12/23 10:13:06;;;;;;;14.98;11.05;;;;;;;8.69;51.30;99938.81;1741689;82;21176;-71
2020/12/23 10:15:34;;;;;;;14.15;10.63;;;;;;;8.70;51.27;99926.42;1741184;82;21266;-74
2020/12/23 10:18:01;;;;;;;16.05;11.53;;;;;;;8.69;51.27;99922.91;1731938;82;21633;-75
2020/12/23 10:20:28;;;;;;;13.75;10.58;;;;;;;8.70;51.25;99924.59;1726519;82;21386;-73
2020/12/23 10:22:56;;;;;;;15.20;10.72;;;;;;;8.70;51.22;99914.00;1724784;81;21237;-75
2020/12/23 10:25:24;;;;;;;15.80;11.48;;;;;;;8.70;51.19;99903.41;1730925;82;21166;-69
2020/12/23 10:27:51;;;;;;;16.20;10.43;;;;;;;8.72;51.20;99924.45;1746737;81;21567;-67
2020/12/23 10:30:18;;;;;;;14.70;10.72;;;;;;;8.72;51.15;99929.25;1724156;82;21120;-68
2020/12/23 10:32:46;;;;;;;14.63;10.15;;;;;;;8.73;51.13;99912.39;1733593;82;23605;-71
2020/12/23 10:35:13;;;;;;;13.60;9.95;;;;;;;8.73;51.11;99910.20;1703169;82;21221;-71
2020/12/23 10:37:42;;;;;;;15.58;11.12;;;;;;;8.73;51.10;99912.39;1714782;82;21302;-70
2020/12/23 10:40:09;;;;;;;15.45;10.85;;;;;;;8.74;51.09;99905.27;1729434;81;21625;-71
2020/12/23 10:42:37;;;;;;;14.45;10.38;;;;;;;8.75;51.09;99910.41;1720947;81;21117;-69
2020/12/23 10:45:06;;;;;;;13.90;10.23;;;;;;;8.74;51.07;99894.17;1751151;81;21389;-72
2020/12/23 10:47:34;;;;;;;14.98;10.72;;;;;;;8.75;51.07;99891.02;1725351;82;21646;-69
2020/12/23 10:50:01;;;;;;;15.25;11.73;;;;;;;8.75;51.05;99905.59;1737443;82;21429;-70
2020/12/23 10:52:28;;;;;;;12.75;9.98;;;;;;;8.75;51.04;99900.29;1718856;82;21133;-71
2020/12/23 10:54:57;;;;;;;14.83;10.30;;;;;;;8.75;51.06;99890.55;1736736;81;21169;-72
2020/12/23 10:57:25;;;;;;;12.65;9.45;;;;;;;8.76;51.03;99882.92;1720113;82;21191;-72
2020/12/23 10:59:53;;;;;;;13.13;10.08;;;;;;;8.76;51.04;99886.90;1747479;81;21217;-70
2020/12/23 11:02:20;;;;;;;14.07;10.90;;;;;;;8.76;51.05;99880.28;1731347;82;21197;-69
2020/12/23 11:04:48;;;;;;;13.10;9.98;;;;;;;8.77;51.03;99870.50;1731829;82;21170;-71
2020/12/23 11:07:15;;;;;;;13.62;9.63;;;;;;;8.77;51.02;99866.06;1740109;81;21157;-73
2020/12/23 11:09:43;;;;;;;13.50;9.35;;;;;;;8.79;51.02;99864.59;1734119;82;21211;-71
2020/12/23 11:12:10;;;;;;;13.60;9.93;;;;;;;8.79;51.01;99868.56;1725203;80;21251;-71
2020/12/23 11:14:38;;;;;;;14.15;9.90;;;;;;;8.80;51.01;99877.66;1775972;80;21178;-72
2020/12/23 11:17:05;;;;;;;13.98;9.93;;;;;;;8.80;51.00;99875.01;1775144;80;21058;-69
2020/12/23 11:19:33;;;;;;;12.70;9.80;;;;;;;8.81;50.98;99872.71;1781487;80;21126;-73
2020/12/23 11:22:01;;;;;;;12.65;9.78;;;;;;;8.83;50.98;99879.19;1784869;80;21363;-73
2020/12/23 11:24:28;;;;;;;13.83;10.30;;;;;;;8.82;50.97;99871.71;1780469;80;21130;-71
2020/12/23 11:26:56;;;;;;;14.65;10.35;;;;;;;8.83;50.97;99869.41;1773358;80;21157;-74
2020/12/23 11:29:23;;;;;;;13.40;9.50;;;;;;;8.84;50.97;99873.71;1771373;80;21149;-71
2020/12/23 11:31:51;;;;;;;11.90;9.33;;;;;;;8.84;50.93;99867.09;1769585;80;21165;-71
2020/12/23 11:34:19;;;;;;;12.55;8.73;;;;;;;8.86;50.92;99858.99;1771057;80;21456;-72
2020/12/23 11:36:48;;;;;;;12.95;9.78;;;;;;;8.86;50.91;99856.34;1774120;80;21158;-72
2020/12/23 11:39:16;;;;;;;14.15;9.95;;;;;;;8.86;50.91;99852.38;1745893;81;21594;-69
2020/12/23 11:41:43;;;;;;;12.37;9.53;;;;;;;8.86;50.91;99848.40;1736678;81;21442;-70